This is the latest recevied weather packets stored in our database for station/object OE-11061. If no packets are shown the sender has not sent any weather packets the latest 10 day(s).
| Time | Temp. | Humidity | Pressure | Rain* | Wind** | Luminosity | Snow |
|---|---|---|---|---|---|---|---|
| 1787846721 | 27.22° C | 62% | 1011.6 hPa | 0 mm | - | 134 W/m² | - |
| 1787846121 | 27.78° C | 62% | 1011.7 hPa | 0 mm | - | 149 W/m² | - |
| 1787845293 | 27.78° C | 57% | 1011.7 hPa | 0 mm | - | 179 W/m² | - |
| 1787844921 | 28.33° C | 56% | 1011.6 hPa | 0 mm | - | 254 W/m² | - |
| 1787844321 | 28.33° C | 59% | 1011.5 hPa | 0 mm | - | 321 W/m² | - |
| 1787843494 | 28.33° C | 60% | 1011.5 hPa | 0 mm | - | 329 W/m² | - |
| 1787843121 | 28.33° C | 60% | 1011.4 hPa | 0 mm | - | 336 W/m² | - |
| 1787842521 | 28.33° C | 60% | 1011.6 hPa | 0 mm | - | 217 W/m² | - |
| 1787841693 | 28.89° C | 56% | 1011.6 hPa | 0 mm | - | 358 W/m² | - |
| 1787841321 | 29.44° C | 58% | 1011.7 hPa | 0 mm | - | 500 W/m² | - |
| 1787839894 | 30° C | 57% | 1011.6 hPa | 0 mm | - | 583 W/m² | - |
| 1787839521 | 30° C | 52% | 1011.6 hPa | 0 mm | - | 620 W/m² | - |
| 1787838921 | 29.44° C | 56% | 1011.8 hPa | 0 mm | - | 627 W/m² | - |
| 1787838094 | 29.44° C | 54% | 1011.9 hPa | 0 mm | - | 560 W/m² | - |
| 1787837721 | 29.44° C | 55% | 1011.8 hPa | 0 mm | - | 605 W/m² | - |
| 1787837121 | 29.44° C | 57% | 1011.9 hPa | 0 mm | - | 665 W/m² | - |
| 1787836294 | 29.44° C | 54% | 1012 hPa | 0 mm | - | 642 W/m² | - |
| 1787835920 | 29.44° C | 57% | 1012.1 hPa | 0 mm | - | 695 W/m² | - |
| 1787835321 | 29.44° C | 54% | 1012.1 hPa | 0 mm | - | 709 W/m² | - |
| 1787834494 | 28.89° C | 58% | 1012.2 hPa | 0 mm | - | 709 W/m² | - |
| 1787834120 | 28.89° C | 57% | 1012.4 hPa | 0 mm | - | 724 W/m² | - |
| 1787833521 | 28.33° C | 57% | 1012.5 hPa | 0 mm | - | 724 W/m² | - |
| 1787832694 | 28.33° C | 58% | 1012.6 hPa | 0 mm | - | 680 W/m² | - |
| 1787832321 | 28.33° C | 57% | 1012.9 hPa | 0 mm | - | 695 W/m² | - |
| 1787831720 | 27.78° C | 60% | 1013.1 hPa | 0 mm | - | 553 W/m² | - |
* Rain latest hour (hover to see other rain measurements)
** Current wind speed in m/s (hover to see current wind gust speed)